createdAt,value
2023-05-28T00:01:37.156Z,11.83
2023-05-28T00:04:05.669Z,12.40
2023-05-28T00:06:34.090Z,12.27
2023-05-28T00:09:02.311Z,11.90
2023-05-28T00:11:30.495Z,11.87
2023-05-28T00:13:58.848Z,12.17
2023-05-28T00:16:27.521Z,11.70
2023-05-28T00:18:57.396Z,11.43
2023-05-28T00:21:27.271Z,11.10
2023-05-28T00:23:55.371Z,12.17
2023-05-28T00:26:23.608Z,11.90
2023-05-28T00:28:51.788Z,12.60
2023-05-28T00:31:20.266Z,11.30
2023-05-28T00:33:48.478Z,12.00
2023-05-28T00:36:18.633Z,12.33
2023-05-28T00:38:47.184Z,11.60
2023-05-28T00:41:15.751Z,11.83
2023-05-28T00:43:43.884Z,12.17
2023-05-28T00:46:12.312Z,11.90
2023-05-28T00:48:40.575Z,12.70
2023-05-28T00:51:08.831Z,12.03
2023-05-28T00:53:38.559Z,11.13
2023-05-28T00:56:07.639Z,11.83
2023-05-28T00:58:36.975Z,11.10
2023-05-28T01:01:05.565Z,12.00
2023-05-28T01:03:33.816Z,12.10
2023-05-28T01:06:02.540Z,13.00
2023-05-28T01:08:30.815Z,12.97
2023-05-28T01:11:01.381Z,12.37
2023-05-28T01:13:30.066Z,12.43
2023-05-28T01:15:59.340Z,11.93
2023-05-28T01:18:29.034Z,11.53
2023-05-28T01:20:57.245Z,13.07
2023-05-28T01:23:29.722Z,12.13
2023-05-28T01:26:00.413Z,12.53
2023-05-28T01:28:28.458Z,12.60
2023-05-28T01:30:56.545Z,12.27
2023-05-28T01:33:25.412Z,13.60
2023-05-28T01:35:55.232Z,11.20
2023-05-28T01:38:24.851Z,12.67
2023-05-28T01:40:56.024Z,12.47
2023-05-28T01:43:26.456Z,13.00
2023-05-28T01:45:55.704Z,12.10
2023-05-28T01:48:24.696Z,11.70
2023-05-28T01:50:54.687Z,13.80
2023-05-28T01:53:22.954Z,13.90
2023-05-28T01:55:51.933Z,12.30
2023-05-28T01:58:20.204Z,12.63
2023-05-28T02:00:57.432Z,11.97
2023-05-28T02:03:25.708Z,12.30
2023-05-28T02:05:54.132Z,11.60
2023-05-28T02:08:22.468Z,12.00
2023-05-28T02:10:50.741Z,13.20
2023-05-28T02:13:18.927Z,12.43
2023-05-28T02:15:47.317Z,13.17
2023-05-28T02:18:16.970Z,13.00
2023-05-28T02:20:45.169Z,12.80
2023-05-28T02:23:13.400Z,13.00
2023-05-28T02:25:41.568Z,12.90
2023-05-28T02:28:09.858Z,12.70
2023-05-28T02:30:38.088Z,12.37
2023-05-28T02:33:06.318Z,11.73
2023-05-28T02:35:36.018Z,11.97
2023-05-28T02:38:04.199Z,12.37
2023-05-28T02:40:32.496Z,13.10
2023-05-28T02:43:00.717Z,12.90
2023-05-28T02:45:28.934Z,13.40
2023-05-28T02:47:57.203Z,12.63
2023-05-28T02:50:25.414Z,12.37
2023-05-28T02:52:55.560Z,13.57
2023-05-28T02:55:23.927Z,11.97
2023-05-28T02:57:53.854Z,12.23
2023-05-28T03:00:22.817Z,12.37
2023-05-28T03:02:51.149Z,11.73
2023-05-28T03:05:19.514Z,13.60
2023-05-28T03:07:47.689Z,13.20
2023-05-28T03:10:17.424Z,12.80
2023-05-28T03:12:45.451Z,12.67
2023-05-28T03:15:13.494Z,12.10
2023-05-28T03:17:41.522Z,13.63
2023-05-28T03:20:11.273Z,11.80
2023-05-28T03:22:40.249Z,12.60
2023-05-28T03:25:09.737Z,12.17
2023-05-28T03:27:39.247Z,12.17
2023-05-28T03:30:11.205Z,12.27
2023-05-28T03:32:39.484Z,12.97
2023-05-28T03:35:09.007Z,11.90
2023-05-28T03:37:37.027Z,12.50
2023-05-28T03:40:06.478Z,12.50
2023-05-28T03:42:34.570Z,13.03
2023-05-28T03:45:04.216Z,12.90
2023-05-28T03:47:34.123Z,12.30
2023-05-28T03:50:02.286Z,13.73
2023-05-28T03:52:31.050Z,12.83
2023-05-28T03:54:59.112Z,13.00
2023-05-28T03:57:27.134Z,13.00
2023-05-28T03:59:56.877Z,11.83
2023-05-28T04:02:26.830Z,13.40
2023-05-28T04:04:55.119Z,12.90
2023-05-28T04:07:24.020Z,13.67
2023-05-28T04:09:52.481Z,13.20
2023-05-28T04:12:21.602Z,13.87
2023-05-28T04:14:49.620Z,12.40
2023-05-28T04:17:18.763Z,13.13
2023-05-28T04:19:48.160Z,12.10
2023-05-28T04:22:16.234Z,13.30
2023-05-28T04:24:44.272Z,12.90
2023-05-28T04:27:12.371Z,12.73
2023-05-28T04:29:40.656Z,12.30
2023-05-28T04:32:10.580Z,12.70
2023-05-28T04:34:41.726Z,12.17
2023-05-28T04:37:11.761Z,11.73
2023-05-28T04:39:39.894Z,11.68
2023-05-28T04:42:10.408Z,11.70
2023-05-28T04:44:38.514Z,11.57
2023-05-28T04:47:07.142Z,12.87
2023-05-28T04:49:35.289Z,12.00
2023-05-28T04:52:03.360Z,12.47
2023-05-28T04:54:32.781Z,12.30
2023-05-28T04:57:00.758Z,13.00
2023-05-28T04:59:28.796Z,11.83
2023-05-28T05:01:56.901Z,12.70
2023-05-28T05:04:25.008Z,12.27
2023-05-28T05:06:53.184Z,11.87
2023-05-28T05:09:21.911Z,12.53
2023-05-28T05:11:51.432Z,13.07
2023-05-28T05:14:21.190Z,12.30
2023-05-28T05:16:49.991Z,13.20
2023-05-28T05:19:18.075Z,12.43
2023-05-28T05:21:46.354Z,13.03
2023-05-28T05:24:14.334Z,13.43
2023-05-28T05:26:42.388Z,13.63
2023-05-28T05:29:11.827Z,13.60
2023-05-28T05:31:39.916Z,13.83
2023-05-28T05:34:07.990Z,13.07
2023-05-28T05:36:36.626Z,14.87
2023-05-28T05:39:04.854Z,13.67
2023-05-28T05:41:32.933Z,13.53
2023-05-28T05:44:01.004Z,13.43
2023-05-28T05:46:30.858Z,13.37
2023-05-28T05:48:58.982Z,13.90
2023-05-28T05:51:26.962Z,13.10
2023-05-28T05:53:55.177Z,13.13
2023-05-28T05:56:23.214Z,13.13
2023-05-28T05:58:51.235Z,14.30
2023-05-28T06:01:19.472Z,13.60
2023-05-28T06:03:48.840Z,14.40
2023-05-28T06:06:16.925Z,13.80
2023-05-28T06:08:44.943Z,13.87
2023-05-28T06:11:13.076Z,13.60
2023-05-28T06:13:41.305Z,13.20
2023-05-28T06:16:09.597Z,13.43
2023-05-28T06:18:37.928Z,12.80
2023-05-28T06:21:08.676Z,14.40
2023-05-28T06:23:36.798Z,14.50
2023-05-28T06:26:06.108Z,13.20
2023-05-28T06:28:34.109Z,13.40
2023-05-28T06:31:02.360Z,14.00
2023-05-28T06:33:30.404Z,14.57
2023-05-28T06:35:58.413Z,13.90
2023-05-28T06:38:27.878Z,14.40
2023-05-28T06:40:56.097Z,13.50
2023-05-28T06:43:24.182Z,13.93
2023-05-28T06:45:52.362Z,14.20
2023-05-28T06:48:20.498Z,13.90
2023-05-28T06:50:48.564Z,13.20
2023-05-28T06:53:16.598Z,13.83
2023-05-28T06:55:46.272Z,14.37
2023-05-28T06:58:14.264Z,13.50
2023-05-28T07:00:42.296Z,13.30
2023-05-28T07:03:10.640Z,13.60
2023-05-28T07:05:39.186Z,13.90
2023-05-28T07:08:08.179Z,13.37
2023-05-28T07:10:36.491Z,13.67
2023-05-28T07:13:06.013Z,12.70
2023-05-28T07:15:34.028Z,12.50
2023-05-28T07:18:02.623Z,13.10
2023-05-28T07:20:30.962Z,12.60
2023-05-28T07:22:59.094Z,12.20
2023-05-28T07:25:27.293Z,12.70
2023-05-28T07:27:55.391Z,13.10
2023-05-28T07:30:24.808Z,14.60
2023-05-28T07:32:52.889Z,13.07
2023-05-28T07:35:20.919Z,12.97
2023-05-28T07:37:48.955Z,13.00
2023-05-28T07:40:17.400Z,13.63
2023-05-28T07:42:46.696Z,12.90
2023-05-28T07:45:16.481Z,13.57
2023-05-28T07:47:46.179Z,13.17
2023-05-28T07:50:14.334Z,13.20
2023-05-28T07:52:42.454Z,13.77
2023-05-28T07:55:11.298Z,13.30
2023-05-28T07:57:39.422Z,13.10
2023-05-28T08:00:13.695Z,12.50
2023-05-28T08:02:42.597Z,14.23
2023-05-28T08:05:12.480Z,12.83
2023-05-28T08:07:40.637Z,13.20
2023-05-28T08:10:09.504Z,12.77
2023-05-28T08:12:37.596Z,14.27
2023-05-28T08:15:07.889Z,14.60
2023-05-28T08:17:35.917Z,15.30
2023-05-28T08:20:05.037Z,13.50
2023-05-28T08:22:34.535Z,14.73
2023-05-28T08:25:02.673Z,15.10
2023-05-28T08:27:30.698Z,14.63
2023-05-28T08:29:58.725Z,15.73
2023-05-28T08:32:26.810Z,14.57
2023-05-28T08:34:54.869Z,15.17
2023-05-28T08:37:23.015Z,14.23
2023-05-28T08:39:52.358Z,15.03
2023-05-28T08:42:20.376Z,14.80
2023-05-28T08:44:48.699Z,15.43
2023-05-28T08:47:17.426Z,14.57
2023-05-28T08:49:54.143Z,16.10
2023-05-28T08:52:22.571Z,15.87
2023-05-28T08:54:52.549Z,15.03
2023-05-28T08:57:21.309Z,14.77
2023-05-28T08:59:49.916Z,13.93
2023-05-28T09:02:18.026Z,14.40
2023-05-28T09:04:47.406Z,13.80
2023-05-28T09:07:16.007Z,14.13
2023-05-28T09:09:44.233Z,14.00
2023-05-28T09:12:14.554Z,14.63
2023-05-28T09:14:44.107Z,14.40
2023-05-28T09:17:14.826Z,13.27
2023-05-28T09:19:52.413Z,13.80
2023-05-28T09:22:20.977Z,13.23
2023-05-28T09:24:50.904Z,14.87
2023-05-28T09:27:21.300Z,14.53
2023-05-28T09:29:49.464Z,13.63
2023-05-28T09:32:21.149Z,13.97
2023-05-28T09:34:51.536Z,14.07
2023-05-28T09:37:20.049Z,14.37
2023-05-28T09:39:48.240Z,14.10
2023-05-28T09:42:16.769Z,13.97
2023-05-28T09:44:46.265Z,14.90
2023-05-28T09:47:16.568Z,13.50
2023-05-28T09:49:46.447Z,14.97
2023-05-28T09:52:20.669Z,14.50
2023-05-28T09:54:52.719Z,14.17
2023-05-28T09:57:25.881Z,14.77
2023-05-28T09:59:57.087Z,13.43
2023-05-28T10:02:34.583Z,14.47
2023-05-28T10:05:09.328Z,13.20
2023-05-28T10:07:39.668Z,12.83
2023-05-28T10:10:10.597Z,12.10
2023-05-28T10:12:41.095Z,13.67
2023-05-28T10:15:12.399Z,13.07
2023-05-28T10:17:41.342Z,12.13
2023-05-28T10:20:11.797Z,12.87
2023-05-28T10:22:41.408Z,13.37
2023-05-28T10:25:10.655Z,13.10
2023-05-28T10:27:45.355Z,14.33
2023-05-28T10:30:31.977Z,14.00
2023-05-28T10:33:00.546Z,14.83
2023-05-28T10:35:29.133Z,15.03
2023-05-28T10:38:14.868Z,15.17
2023-05-28T10:40:43.216Z,14.10
2023-05-28T10:43:46.601Z,13.10
2023-05-28T10:46:18.678Z,13.63
2023-05-28T10:49:11.658Z,13.10
2023-05-28T10:52:04.275Z,13.47
2023-05-28T10:54:44.077Z,13.07
2023-05-28T10:57:13.994Z,13.97
2023-05-28T10:59:47.213Z,14.73
2023-05-28T11:02:20.703Z,14.87
2023-05-28T11:04:52.370Z,13.20
2023-05-28T11:07:22.486Z,14.10
2023-05-28T11:09:51.717Z,13.40
2023-05-28T11:12:21.704Z,17.97
2023-05-28T11:14:50.320Z,14.77
2023-05-28T11:17:19.855Z,13.73
2023-05-28T11:19:49.813Z,14.33
2023-05-28T11:22:19.137Z,15.47
2023-05-28T11:25:01.046Z,14.77
2023-05-28T11:27:29.687Z,14.67
2023-05-28T11:29:59.031Z,14.07
2023-05-28T11:32:29.771Z,14.23
2023-05-28T11:34:57.960Z,14.20
2023-05-28T11:37:28.022Z,15.30
2023-05-28T11:39:57.451Z,14.43
2023-05-28T11:42:26.567Z,14.93
2023-05-28T11:44:55.022Z,13.50
2023-05-28T11:47:23.550Z,13.87
2023-05-28T11:49:53.090Z,14.37
2023-05-28T11:52:23.246Z,14.77
2023-05-28T11:54:56.224Z,17.27
2023-05-28T11:57:26.875Z,15.50
2023-05-28T12:00:01.383Z,14.00
2023-05-28T12:02:29.663Z,13.63
2023-05-28T12:05:00.568Z,14.13
2023-05-28T12:07:33.290Z,14.37
2023-05-28T12:10:09.240Z,13.47
2023-05-28T12:12:41.405Z,12.70
2023-05-28T12:15:10.551Z,13.43
2023-05-28T12:17:39.697Z,14.27
2023-05-28T12:20:30.896Z,13.37
2023-05-28T12:23:08.006Z,13.87
2023-05-28T12:25:49.662Z,19.90
2023-05-28T12:28:19.050Z,16.00
2023-05-28T12:30:51.526Z,14.67
2023-05-28T12:33:19.889Z,14.40
2023-05-28T12:35:49.827Z,14.40
2023-05-28T12:38:18.106Z,14.10
2023-05-28T12:40:46.223Z,13.90
2023-05-28T12:43:14.324Z,14.17
2023-05-28T12:45:42.878Z,14.57
2023-05-28T12:48:11.217Z,14.40
2023-05-28T12:50:39.415Z,13.67
2023-05-28T12:53:08.920Z,14.20
2023-05-28T12:55:37.568Z,13.80
2023-05-28T12:58:05.833Z,13.60
2023-05-28T13:00:34.250Z,13.57
2023-05-28T13:03:04.182Z,12.23
2023-05-28T13:05:34.173Z,13.50
2023-05-28T13:08:03.466Z,13.77
2023-05-28T13:10:33.319Z,13.70
2023-05-28T13:13:01.483Z,13.17
2023-05-28T13:15:29.713Z,13.30
2023-05-28T13:17:58.551Z,14.03
2023-05-28T13:20:27.056Z,13.53
2023-05-28T13:22:55.205Z,13.70
2023-05-28T13:25:23.577Z,13.03
2023-05-28T13:27:53.343Z,12.57
2023-05-28T13:30:21.867Z,13.10
2023-05-28T13:32:50.047Z,13.00
2023-05-28T13:35:18.315Z,13.00
2023-05-28T13:37:47.041Z,13.90
2023-05-28T13:40:15.477Z,12.60
2023-05-28T13:42:45.253Z,12.50
2023-05-28T13:45:14.706Z,12.70
2023-05-28T13:47:43.045Z,14.50
2023-05-28T13:50:12.085Z,12.80
2023-05-28T13:52:40.294Z,12.60
2023-05-28T13:55:09.251Z,13.47
2023-05-28T13:57:37.447Z,13.70
2023-05-28T14:00:08.343Z,13.30
2023-05-28T14:02:38.291Z,14.40
2023-05-28T14:05:07.449Z,14.20
2023-05-28T14:07:36.021Z,14.10
2023-05-28T14:10:04.860Z,13.67
2023-05-28T14:12:33.055Z,12.43
2023-05-28T14:15:02.237Z,13.47
2023-05-28T14:17:30.404Z,13.03
2023-05-28T14:19:59.906Z,13.70
2023-05-28T14:22:28.910Z,13.40
2023-05-28T14:24:57.032Z,12.40
2023-05-28T14:27:25.213Z,12.77
2023-05-28T14:29:53.364Z,13.57
2023-05-28T14:32:24.287Z,13.60
2023-05-28T14:34:52.371Z,13.80
2023-05-28T14:37:21.762Z,11.90
2023-05-28T14:39:49.816Z,12.70
2023-05-28T14:42:17.818Z,12.33
2023-05-28T14:44:46.216Z,11.97
2023-05-28T14:47:14.454Z,12.50
2023-05-28T14:49:42.867Z,12.90
2023-05-28T14:52:26.176Z,12.07
2023-05-28T14:54:54.634Z,11.87
2023-05-28T14:57:23.214Z,12.23
2023-05-28T14:59:51.915Z,12.93
2023-05-28T15:02:20.072Z,12.37
2023-05-28T15:04:48.299Z,12.83
2023-05-28T15:07:16.404Z,12.83
2023-05-28T15:09:45.718Z,12.40
2023-05-28T15:12:13.835Z,12.60
2023-05-28T15:14:42.244Z,12.30
2023-05-28T15:17:10.284Z,12.33
2023-05-28T15:19:38.269Z,11.90
2023-05-28T15:22:06.557Z,12.27
2023-05-28T15:24:35.858Z,12.80
2023-05-28T15:27:06.683Z,13.30
2023-05-28T15:29:35.039Z,12.30
2023-05-28T15:32:06.184Z,11.60
2023-05-28T15:34:34.747Z,12.00
2023-05-28T15:37:03.041Z,11.67
2023-05-28T15:39:31.652Z,12.00
2023-05-28T15:42:02.492Z,12.37
2023-05-28T15:44:32.711Z,12.00
2023-05-28T15:47:01.016Z,12.47
2023-05-28T15:49:29.105Z,12.10
2023-05-28T15:51:59.275Z,11.57
2023-05-28T15:54:27.801Z,11.03
2023-05-28T15:56:56.337Z,11.10
2023-05-28T15:59:24.623Z,10.97
2023-05-28T16:01:56.605Z,12.23
2023-05-28T16:04:27.532Z,11.47
2023-05-28T16:06:55.845Z,11.10
2023-05-28T16:09:24.672Z,12.10
2023-05-28T16:11:56.829Z,11.93
2023-05-28T16:14:25.311Z,11.90
2023-05-28T16:16:55.972Z,11.53
2023-05-28T16:19:24.487Z,12.67
2023-05-28T16:21:53.072Z,11.87
2023-05-28T16:24:21.148Z,12.70
2023-05-28T16:26:52.057Z,12.40
2023-05-28T16:29:20.330Z,11.23
2023-05-28T16:31:49.183Z,11.10
2023-05-28T16:34:18.926Z,11.40
2023-05-28T16:36:48.107Z,11.67
2023-05-28T16:39:16.672Z,11.80
2023-05-28T16:41:45.003Z,11.50
2023-05-28T16:44:13.361Z,11.30
2023-05-28T16:46:42.142Z,12.23
2023-05-28T16:49:12.503Z,11.60
2023-05-28T16:51:42.259Z,11.47
2023-05-28T16:54:12.404Z,11.73
2023-05-28T16:56:40.569Z,11.40
2023-05-28T16:59:08.604Z,11.43
2023-05-28T17:01:37.587Z,12.30
2023-05-28T17:04:05.736Z,11.43
2023-05-28T17:06:33.799Z,12.80
2023-05-28T17:09:03.588Z,12.00
2023-05-28T17:11:31.657Z,12.23
2023-05-28T17:13:59.679Z,11.17
2023-05-28T17:16:27.670Z,12.53
2023-05-28T17:18:55.747Z,11.93
2023-05-28T17:21:23.784Z,12.23
2023-05-28T17:23:51.801Z,11.43
2023-05-28T17:26:21.869Z,11.90
2023-05-28T17:28:50.056Z,12.60
2023-05-28T17:31:18.201Z,11.77
2023-05-28T17:33:46.231Z,11.13
2023-05-28T17:36:14.404Z,11.23
2023-05-28T17:38:43.101Z,12.70
2023-05-28T17:41:11.205Z,10.90
2023-05-28T17:43:41.864Z,11.27
2023-05-28T17:46:09.972Z,11.53
2023-05-28T17:48:38.012Z,11.30
2023-05-28T17:51:06.421Z,11.40
2023-05-28T17:53:43.273Z,11.33
2023-05-28T17:56:14.353Z,11.20
2023-05-28T17:58:44.081Z,12.60
2023-05-28T18:01:12.261Z,12.00
2023-05-28T18:03:40.605Z,10.70
2023-05-28T18:06:10.409Z,11.57
2023-05-28T18:08:38.974Z,11.90
2023-05-28T18:11:07.146Z,11.07
2023-05-28T18:13:35.277Z,10.73
2023-05-28T18:16:04.905Z,12.73
2023-05-28T18:18:33.228Z,10.67
2023-05-28T18:21:01.462Z,11.07
2023-05-28T18:23:31.058Z,10.80
2023-05-28T18:25:59.268Z,10.50
2023-05-28T18:28:27.692Z,10.47
2023-05-28T18:30:56.802Z,10.43
2023-05-28T18:33:28.068Z,11.70
2023-05-28T18:35:56.229Z,11.73
2023-05-28T18:38:24.395Z,11.13
2023-05-28T18:40:52.700Z,11.03
2023-05-28T18:43:23.850Z,11.67
2023-05-28T18:45:52.175Z,11.27
2023-05-28T18:48:20.891Z,10.27
2023-05-28T18:50:50.416Z,10.87
2023-05-28T18:53:18.582Z,11.50
2023-05-28T18:55:46.793Z,11.33
2023-05-28T18:58:16.216Z,10.80
2023-05-28T19:00:44.511Z,11.00
2023-05-28T19:03:12.684Z,11.03
2023-05-28T19:05:41.073Z,11.33
2023-05-28T19:08:10.617Z,11.47
2023-05-28T19:10:38.723Z,11.87
2023-05-28T19:13:06.886Z,12.93
2023-05-28T19:15:35.081Z,12.03
2023-05-28T19:18:03.311Z,11.80
2023-05-28T19:20:31.547Z,10.80
2023-05-28T19:22:59.665Z,11.30
2023-05-28T19:25:29.282Z,11.93
2023-05-28T19:27:57.451Z,10.70
2023-05-28T19:30:25.696Z,10.93
2023-05-28T19:32:53.826Z,10.80
2023-05-28T19:35:22.091Z,11.23
2023-05-28T19:37:51.612Z,10.53
2023-05-28T19:40:19.747Z,12.90
2023-05-28T19:42:49.353Z,10.70
2023-05-28T19:45:17.725Z,10.90
2023-05-28T19:47:46.911Z,10.70
2023-05-28T19:50:15.092Z,11.07
2023-05-28T19:52:43.253Z,10.73
2023-05-28T19:55:11.440Z,10.53
2023-05-28T19:57:39.643Z,10.17
2023-05-28T20:00:11.682Z,11.00
2023-05-28T20:02:39.796Z,10.30
2023-05-28T20:05:09.817Z,11.10
2023-05-28T20:07:40.914Z,11.33
2023-05-28T20:10:10.562Z,10.33
2023-05-28T20:12:39.619Z,9.97
2023-05-28T20:15:10.509Z,9.77
2023-05-28T20:17:38.632Z,10.67
2023-05-28T20:20:10.482Z,10.17
2023-05-28T20:22:39.770Z,10.67
2023-05-28T20:25:09.707Z,10.20
2023-05-28T20:27:37.897Z,10.30
2023-05-28T20:30:07.143Z,11.07
2023-05-28T20:32:36.644Z,10.80
2023-05-28T20:35:05.065Z,10.10
2023-05-28T20:37:33.119Z,10.60
2023-05-28T20:40:01.312Z,10.53
2023-05-28T20:42:30.505Z,10.47
2023-05-28T20:45:02.064Z,10.40
2023-05-28T20:47:30.836Z,11.47
2023-05-28T20:50:00.581Z,11.53
2023-05-28T20:52:28.635Z,11.67
2023-05-28T20:54:56.635Z,11.33
2023-05-28T20:57:42.752Z,12.57
2023-05-28T21:00:12.705Z,11.90
2023-05-28T21:02:40.910Z,11.10
2023-05-28T21:05:11.266Z,11.00
2023-05-28T21:07:39.831Z,10.63
2023-05-28T21:10:08.919Z,11.00
2023-05-28T21:12:37.046Z,10.73
2023-05-28T21:15:05.840Z,11.03
2023-05-28T21:17:34.038Z,11.30
2023-05-28T21:20:03.235Z,11.00
2023-05-28T21:22:32.798Z,11.33
2023-05-28T21:25:00.998Z,10.90
2023-05-28T21:27:29.107Z,12.00
2023-05-28T21:29:57.207Z,11.80
2023-05-28T21:32:25.572Z,11.23
2023-05-28T21:34:53.717Z,10.90
2023-05-28T21:37:21.824Z,10.60
2023-05-28T21:39:54.085Z,10.40
2023-05-28T21:42:22.224Z,10.20
2023-05-28T21:44:51.271Z,10.03
2023-05-28T21:47:19.452Z,10.77
2023-05-28T21:49:48.484Z,10.57
2023-05-28T21:52:17.636Z,10.30
2023-05-28T21:54:45.749Z,10.97
2023-05-28T21:57:15.270Z,10.13
2023-05-28T21:59:43.494Z,10.83
2023-05-28T22:02:11.699Z,10.97
2023-05-28T22:04:39.921Z,10.97
2023-05-28T22:07:07.995Z,10.77
2023-05-28T22:09:36.091Z,11.00
2023-05-28T22:12:06.633Z,9.90
2023-05-28T22:14:36.145Z,10.83
2023-05-28T22:17:04.289Z,11.30
2023-05-28T22:19:32.824Z,10.67
2023-05-28T22:22:01.007Z,10.23
2023-05-28T22:24:29.189Z,10.10
2023-05-28T22:26:57.325Z,9.97
2023-05-28T22:29:25.401Z,10.00
2023-05-28T22:31:54.980Z,9.47
2023-05-28T22:34:23.149Z,10.33
2023-05-28T22:36:51.314Z,9.93
2023-05-28T22:39:19.436Z,11.00
2023-05-28T22:41:47.561Z,10.13
2023-05-28T22:44:15.879Z,10.10
2023-05-28T22:46:45.854Z,9.93
2023-05-28T22:49:16.830Z,10.67
2023-05-28T22:51:45.981Z,10.33
2023-05-28T22:54:15.393Z,11.00
2023-05-28T22:56:46.037Z,10.50
2023-05-28T22:59:14.740Z,10.57
2023-05-28T23:01:43.131Z,10.20
2023-05-28T23:04:11.298Z,10.20
2023-05-28T23:06:42.150Z,10.63
2023-05-28T23:09:11.001Z,11.03
2023-05-28T23:11:40.150Z,10.70
2023-05-28T23:14:09.866Z,10.47
2023-05-28T23:16:38.661Z,11.80
2023-05-28T23:19:06.874Z,11.10
2023-05-28T23:21:35.067Z,10.63
2023-05-28T23:24:04.787Z,10.93
2023-05-28T23:26:32.944Z,11.60
2023-05-28T23:29:01.751Z,10.50
2023-05-28T23:31:29.923Z,11.20
2023-05-28T23:33:58.055Z,11.20
2023-05-28T23:36:27.784Z,12.13
2023-05-28T23:38:56.206Z,10.63
2023-05-28T23:41:26.197Z,10.90
2023-05-28T23:43:54.412Z,11.07
2023-05-28T23:46:24.002Z,11.03
2023-05-28T23:48:52.224Z,11.17
2023-05-28T23:51:20.479Z,10.77
2023-05-28T23:53:48.626Z,11.77
2023-05-28T23:56:16.802Z,11.00
2023-05-28T23:58:46.332Z,11.97
